Time;durP1;ratioP1;P1;durP2;ratioP2;P2;SDS_P1;SDS_P2;PMS_P1;PMS_P2;Temp;Humidity;BMP_temperature;BMP_pressure;BME280_temperature;BME280_humidity;BME280_pressure;Samples;Min_cycle;Max_cycle;Signal;HPM_P1;HPM_P2
2023/09/14 00:01:44;;;;;;;5.95;1.67;;;;;;;15.84;100.00;102222.56;5083187;28;20106;-68
2023/09/14 00:04:11;;;;;;;8.05;2.10;;;;;;;15.88;100.00;102221.31;5081331;28;20139;-68
2023/09/14 00:06:38;;;;;;;7.28;1.88;;;;;;;15.92;100.00;102214.75;5085076;28;20062;-68
2023/09/14 00:09:04;;;;;;;9.75;1.90;;;;;;;15.92;100.00;102212.09;5081396;28;20498;-68
2023/09/14 00:11:30;;;;;;;8.05;2.20;;;;;;;15.96;100.00;102219.59;5095875;28;20087;-68
2023/09/14 00:13:57;;;;;;;7.70;1.90;;;;;;;16.00;100.00;102220.13;5074709;28;20359;-68
2023/09/14 00:16:23;;;;;;;5.80;1.88;;;;;;;16.02;100.00;102219.00;5082401;28;20144;-68
2023/09/14 00:18:50;;;;;;;6.25;2.05;;;;;;;16.03;100.00;102217.16;5088420;28;20449;-68
2023/09/14 00:21:17;;;;;;;10.95;2.35;;;;;;;16.08;100.00;102233.44;5076791;28;20107;-68
2023/09/14 00:23:43;;;;;;;8.68;2.25;;;;;;;16.08;100.00;102222.88;5088988;28;20040;-68
2023/09/14 00:26:11;;;;;;;10.55;2.00;;;;;;;16.12;100.00;102224.22;5086421;28;20489;-68
2023/09/14 00:28:37;;;;;;;7.35;2.03;;;;;;;16.13;100.00;102214.47;5086938;28;20127;-68
2023/09/14 00:31:03;;;;;;;8.50;2.15;;;;;;;16.13;100.00;102215.31;5069981;28;20424;-68
2023/09/14 00:33:30;;;;;;;13.98;2.45;;;;;;;16.19;100.00;102220.00;5077600;28;20056;-68
2023/09/14 00:35:56;;;;;;;4.85;1.85;;;;;;;16.19;100.00;102216.50;5088506;28;20052;-68
2023/09/14 00:38:25;;;;;;;7.72;2.15;;;;;;;16.20;100.00;102210.25;5098540;28;20319;-67
2023/09/14 00:40:51;;;;;;;7.00;1.75;;;;;;;16.19;100.00;102217.38;5093598;28;20143;-68
2023/09/14 00:43:19;;;;;;;7.95;2.60;;;;;;;16.18;100.00;102209.56;5078771;28;20052;-68
2023/09/14 00:45:46;;;;;;;7.73;2.00;;;;;;;16.20;100.00;102219.00;5086615;28;20368;-68
2023/09/14 00:48:13;;;;;;;10.05;2.08;;;;;;;16.23;100.00;102214.41;5091957;28;20508;-68
2023/09/14 00:50:40;;;;;;;7.93;2.15;;;;;;;16.26;100.00;102211.47;5096003;28;20124;-68
2023/09/14 00:53:11;;;;;;;11.80;2.47;;;;;;;16.28;100.00;102217.44;5090094;27;20082;-68
2023/09/14 00:55:38;;;;;;;7.82;2.20;;;;;;;16.26;100.00;102214.13;5092835;27;20475;-68
2023/09/14 00:58:05;;;;;;;3.70;1.80;;;;;;;16.26;100.00;102217.59;5088271;27;20081;-68
2023/09/14 01:00:32;;;;;;;7.18;1.98;;;;;;;16.26;100.00;102216.75;5079110;28;20044;-67
2023/09/14 01:02:59;;;;;;;9.27;2.17;;;;;;;16.25;100.00;102213.28;5091770;27;20536;-68
2023/09/14 01:05:30;;;;;;;6.72;2.10;;;;;;;16.26;100.00;102209.66;5079871;28;20060;-68
2023/09/14 01:07:58;;;;;;;5.55;2.05;;;;;;;16.27;100.00;102207.81;5095395;28;20082;-67
2023/09/14 01:10:25;;;;;;;8.38;2.28;;;;;;;16.28;100.00;102217.44;5096191;27;20056;-68
2023/09/14 01:12:52;;;;;;;5.50;1.80;;;;;;;16.29;100.00;102211.16;5085488;28;20056;-68
2023/09/14 01:15:39;;;;;;;11.25;2.53;;;;;;;16.28;100.00;102209.50;5086340;28;20052;-68
2023/09/14 01:18:26;;;;;;;6.63;1.83;;;;;;;16.28;100.00;102217.44;5081311;28;20043;-68
2023/09/14 01:21:36;;;;;;;9.10;2.17;;;;;;;16.25;100.00;102215.09;5090726;27;20276;-68
2023/09/14 01:24:20;;;;;;;7.88;2.10;;;;;;;16.24;100.00;102214.25;5078899;28;20059;-68
2023/09/14 01:26:47;;;;;;;10.20;2.30;;;;;;;16.19;100.00;102213.88;5085357;28;20052;-68
2023/09/14 01:29:13;;;;;;;7.25;2.08;;;;;;;16.17;100.00;102210.53;5107179;27;20039;-68
2023/09/14 01:31:41;;;;;;;9.60;2.20;;;;;;;16.17;100.00;102205.25;5089079;28;20600;-68
2023/09/14 01:34:08;;;;;;;7.47;2.10;;;;;;;16.23;100.00;102215.25;5098957;28;20043;-68
2023/09/14 01:36:47;;;;;;;5.57;2.00;;;;;;;16.26;100.00;102208.81;5080273;28;20757;-69
2023/09/14 01:39:15;;;;;;;6.18;2.40;;;;;;;16.24;100.00;102206.31;5092112;28;20047;-68
2023/09/14 01:41:42;;;;;;;7.72;1.90;;;;;;;16.26;100.00;102214.94;5083347;28;20573;-68
2023/09/14 01:44:09;;;;;;;9.73;2.20;;;;;;;16.23;100.00;102214.41;5093348;28;20490;-68
2023/09/14 01:46:36;;;;;;;11.77;2.22;;;;;;;16.24;100.00;102213.44;5080836;28;20076;-68
2023/09/14 01:49:03;;;;;;;6.82;1.83;;;;;;;16.19;100.00;102212.06;5096433;28;20043;-68
2023/09/14 01:51:30;;;;;;;10.57;2.50;;;;;;;16.16;100.00;102208.88;5085436;28;20135;-68
2023/09/14 01:53:57;;;;;;;8.38;2.20;;;;;;;16.16;100.00;102212.34;5096396;28;20051;-67
2023/09/14 01:56:23;;;;;;;8.85;2.50;;;;;;;16.11;100.00;102206.69;5084136;28;20615;-68
2023/09/14 01:58:49;;;;;;;7.65;1.88;;;;;;;16.11;100.00;102212.00;5077875;28;20040;-67
2023/09/14 02:01:16;;;;;;;9.32;2.33;;;;;;;16.06;100.00;102205.47;5092977;27;20148;-68
2023/09/14 02:03:42;;;;;;;9.00;2.20;;;;;;;16.00;100.00;102202.44;5074123;27;20546;-68
2023/09/14 02:06:09;;;;;;;10.32;2.40;;;;;;;16.00;100.00;102199.78;5081812;28;20056;-67
2023/09/14 02:08:36;;;;;;;6.50;2.15;;;;;;;16.00;100.00;102202.44;5095272;28;20540;-68
2023/09/14 02:11:03;;;;;;;6.85;1.92;;;;;;;15.92;100.00;102197.03;5084098;28;20069;-68
2023/09/14 02:13:29;;;;;;;8.48;2.50;;;;;;;15.96;100.00;102205.53;5089874;28;20043;-68
2023/09/14 02:15:56;;;;;;;10.93;2.40;;;;;;;15.94;100.00;102197.72;5085948;28;20059;-68
2023/09/14 02:18:22;;;;;;;7.18;2.28;;;;;;;15.89;100.00;102199.97;5083896;28;20462;-68
2023/09/14 02:20:49;;;;;;;7.25;2.03;;;;;;;15.85;100.00;102192.50;5076496;28;20426;-68
2023/09/14 02:23:18;;;;;;;9.15;2.40;;;;;;;15.82;100.00;102193.63;5083645;28;20055;-68
2023/09/14 02:25:46;;;;;;;4.95;1.92;;;;;;;15.77;100.00;102196.69;5081010;28;20068;-68
2023/09/14 02:28:13;;;;;;;9.35;2.17;;;;;;;15.72;100.00;102192.78;5090877;28;20159;-68
2023/09/14 02:30:41;;;;;;;5.85;2.10;;;;;;;15.69;100.00;102196.56;5084232;28;20048;-68
2023/09/14 02:33:08;;;;;;;6.95;2.30;;;;;;;15.69;100.00;102190.47;5092310;28;20495;-68
2023/09/14 02:35:36;;;;;;;8.50;2.53;;;;;;;15.70;100.00;102192.97;5089626;28;20084;-68
2023/09/14 02:38:02;;;;;;;6.22;2.28;;;;;;;15.66;100.00;102188.94;5078038;28;20526;-68
2023/09/14 02:40:30;;;;;;;7.00;2.28;;;;;;;15.65;100.00;102189.09;5083956;28;20408;-68
2023/09/14 02:42:56;;;;;;;8.10;2.28;;;;;;;15.61;100.00;102186.72;5077880;28;20576;-68
2023/09/14 02:45:23;;;;;;;9.65;2.63;;;;;;;15.57;100.00;102187.16;5085712;28;20195;-68
2023/09/14 02:47:50;;;;;;;7.68;2.60;;;;;;;15.49;100.00;102179.13;5081028;28;20064;-68
2023/09/14 02:50:17;;;;;;;6.55;2.13;;;;;;;15.40;100.00;102176.38;5091238;28;20296;-67
2023/09/14 02:52:44;;;;;;;12.10;2.47;;;;;;;15.34;100.00;102176.94;5101980;28;20079;-68
2023/09/14 02:55:10;;;;;;;7.30;2.42;;;;;;;15.33;100.00;102175.28;5083304;28;20064;-68
2023/09/14 02:57:37;;;;;;;9.48;2.80;;;;;;;15.30;100.00;102180.03;5078856;28;20051;-68
2023/09/14 03:00:06;;;;;;;7.32;2.50;;;;;;;15.27;100.00;102182.94;5095058;28;20687;-68
2023/09/14 03:02:33;;;;;;;8.80;2.60;;;;;;;15.17;100.00;102177.69;5106520;27;20502;-67
2023/09/14 03:04:59;;;;;;;7.78;2.42;;;;;;;15.09;100.00;102173.13;5083501;28;20048;-68
2023/09/14 03:07:26;;;;;;;7.30;2.45;;;;;;;15.04;100.00;102172.75;5078263;28;20094;-68
2023/09/14 03:09:52;;;;;;;8.30;3.40;;;;;;;14.93;100.00;102179.00;5086846;28;20052;-68
2023/09/14 03:12:19;;;;;;;4.22;1.85;;;;;;;14.90;100.00;102181.13;5075279;28;20066;-67
2023/09/14 03:14:45;;;;;;;9.43;2.63;;;;;;;14.85;100.00;102178.06;5082339;28;20108;-68
2023/09/14 03:17:12;;;;;;;6.72;2.20;;;;;;;14.81;100.00;102188.06;5095879;28;20502;-68
2023/09/14 03:19:42;;;;;;;10.50;2.83;;;;;;;14.78;100.00;102185.72;5081320;28;20480;-67
2023/09/14 03:22:09;;;;;;;6.10;1.90;;;;;;;14.69;100.00;102184.75;5083191;28;20480;-67
2023/09/14 03:24:35;;;;;;;8.63;2.50;;;;;;;14.60;100.00;102182.94;5071954;28;20546;-68
2023/09/14 03:27:02;;;;;;;6.80;2.35;;;;;;;14.58;100.00;102182.22;5077125;28;20079;-67
2023/09/14 03:29:29;;;;;;;5.22;2.20;;;;;;;14.52;100.00;102190.69;5078800;28;20516;-68
2023/09/14 03:31:55;;;;;;;6.95;2.40;;;;;;;14.43;100.00;102192.38;5081002;28;20134;-67
2023/09/14 03:34:22;;;;;;;5.53;2.20;;;;;;;14.38;100.00;102192.75;5084647;28;20135;-67
2023/09/14 03:36:48;;;;;;;6.95;2.35;;;;;;;14.33;100.00;102200.28;5080556;28;20051;-67
2023/09/14 03:39:15;;;;;;;5.80;2.10;;;;;;;14.26;100.00;102196.50;5079873;28;20056;-68
2023/09/14 03:41:41;;;;;;;3.17;1.85;;;;;;;14.21;100.00;102196.94;5073686;28;20080;-67
2023/09/14 03:44:08;;;;;;;7.72;2.33;;;;;;;14.20;100.00;102205.81;5084073;28;20875;-67
2023/09/14 03:46:34;;;;;;;6.28;2.70;;;;;;;14.17;100.00;102207.88;5074278;28;20421;-67
2023/09/14 03:49:02;;;;;;;7.45;2.60;;;;;;;14.15;100.00;102205.41;5088649;28;20054;-67
2023/09/14 03:51:29;;;;;;;5.70;2.65;;;;;;;14.16;100.00;102207.03;5093936;28;20060;-67
2023/09/14 03:53:55;;;;;;;5.47;2.67;;;;;;;14.12;100.00;102191.63;5078111;28;20457;-67
2023/09/14 03:56:22;;;;;;;9.23;3.30;;;;;;;14.15;100.00;102194.84;5081152;28;20804;-68
2023/09/14 03:58:49;;;;;;;6.47;3.15;;;;;;;14.14;100.00;102202.88;5093769;28;20097;-66
2023/09/14 04:01:16;;;;;;;6.30;2.65;;;;;;;14.09;100.00;102197.16;5093391;28;20095;-67
2023/09/14 04:03:42;;;;;;;7.45;2.63;;;;;;;14.06;100.00;102200.91;5095190;28;20056;-67
2023/09/14 04:06:09;;;;;;;7.60;2.58;;;;;;;14.01;100.00;102205.75;5078679;28;20097;-67
2023/09/14 04:08:36;;;;;;;9.73;2.40;;;;;;;13.96;100.00;102198.25;5079915;28;20551;-67
2023/09/14 04:11:02;;;;;;;7.72;2.72;;;;;;;13.94;100.00;102200.19;5081357;28;20131;-67
2023/09/14 04:13:34;;;;;;;7.25;2.58;;;;;;;13.92;100.00;102199.50;5087266;28;20056;-67
2023/09/14 04:16:02;;;;;;;10.45;3.40;;;;;;;13.88;100.00;102191.97;5083829;28;20047;-67
2023/09/14 04:18:34;;;;;;;7.13;2.20;;;;;;;13.85;100.00;102195.72;5092119;28;20063;-67
2023/09/14 04:21:02;;;;;;;7.28;2.60;;;;;;;13.83;100.00;102193.22;5090964;28;20094;-67
2023/09/14 04:23:38;;;;;;;5.77;2.57;;;;;;;13.82;100.00;102196.84;5088201;28;20091;-67
2023/09/14 04:26:13;;;;;;;;;;;;;;;13.82;100.00;102191.56;5081557;28;20154;-67
2023/09/14 04:29:00;;;;;;;6.68;2.50;;;;;;;13.84;100.00;102186.16;5087660;28;20390;-67
2023/09/14 04:31:40;;;;;;;9.23;2.95;;;;;;;13.79;100.00;102186.53;5082246;28;20607;-68
2023/09/14 04:34:08;;;;;;;8.02;2.70;;;;;;;13.73;100.00;102192.34;5083584;28;20610;-67
2023/09/14 04:36:37;;;;;;;8.25;3.40;;;;;;;13.65;100.00;102186.91;5086003;28;20048;-68
2023/09/14 04:39:04;;;;;;;5.22;2.42;;;;;;;13.63;100.00;102196.75;5087586;28;20561;-67
2023/09/14 04:41:30;;;;;;;6.82;2.30;;;;;;;13.58;100.00;102193.69;5090534;28;20132;-67
2023/09/14 04:43:57;;;;;;;7.28;2.75;;;;;;;13.55;100.00;102188.69;5078950;28;20519;-67
2023/09/14 04:46:23;;;;;;;9.13;3.38;;;;;;;13.56;100.00;102195.63;5086415;28;20075;-67
2023/09/14 04:48:50;;;;;;;7.38;2.40;;;;;;;13.56;100.00;102198.25;5086044;28;20052;-68
2023/09/14 04:51:17;;;;;;;7.38;2.63;;;;;;;13.57;100.00;102199.94;5083755;28;20097;-67
2023/09/14 04:53:43;;;;;;;4.65;2.08;;;;;;;13.52;100.00;102197.69;5093949;27;20495;-68
2023/09/14 04:56:10;;;;;;;4.10;2.20;;;;;;;13.51;100.00;102208.38;5087213;28;20100;-67
2023/09/14 04:58:36;;;;;;;5.78;2.33;;;;;;;13.46;100.00;102206.13;5104092;28;20677;-68
2023/09/14 05:01:04;;;;;;;6.95;2.60;;;;;;;13.49;100.00;102203.22;5086410;28;20072;-68
2023/09/14 05:03:31;;;;;;;6.57;2.22;;;;;;;13.47;100.00;102204.34;5113421;27;20051;-68
2023/09/14 05:05:59;;;;;;;5.75;2.55;;;;;;;13.42;100.00;102210.81;5083246;28;20143;-68
2023/09/14 05:08:25;;;;;;;6.57;2.77;;;;;;;13.39;100.00;102213.72;5085065;28;20546;-68
2023/09/14 05:10:51;;;;;;;6.90;2.30;;;;;;;13.36;100.00;102207.88;5088734;28;20048;-68
2023/09/14 05:13:20;;;;;;;7.65;2.53;;;;;;;13.34;100.00;102210.63;5088621;28;20470;-68
2023/09/14 05:15:47;;;;;;;;;;;;;;;13.34;100.00;102209.81;5085823;28;20647;-68
2023/09/14 05:18:14;;;;;;;8.15;2.58;;;;;;;13.31;100.00;102210.06;5073253;28;19924;-68
2023/09/14 05:20:44;;;;;;;8.48;3.05;;;;;;;13.33;100.00;102210.75;5085016;28;20110;-68
2023/09/14 05:23:10;;;;;;;6.82;2.78;;;;;;;13.32;100.00;102209.09;5079095;28;20079;-68
2023/09/14 05:25:37;;;;;;;8.45;2.78;;;;;;;13.35;100.00;102214.09;5086449;28;20634;-68
2023/09/14 05:28:04;;;;;;;6.80;3.15;;;;;;;13.35;100.00;102222.00;5085975;28;20107;-68
2023/09/14 05:30:32;;;;;;;8.13;2.60;;;;;;;13.38;100.00;102219.94;5078709;28;20362;-67
2023/09/14 05:32:58;;;;;;;9.95;3.33;;;;;;;13.38;100.00;102216.47;5080536;28;20062;-67
2023/09/14 05:35:26;;;;;;;6.38;2.80;;;;;;;13.39;100.00;102216.34;5082362;28;20452;-68
2023/09/14 05:37:52;;;;;;;6.50;2.83;;;;;;;13.40;100.00;102219.81;5084971;28;20059;-68
2023/09/14 05:40:19;;;;;;;11.52;3.65;;;;;;;13.39;100.00;102224.25;5093005;28;20060;-67
2023/09/14 05:42:46;;;;;;;8.15;2.90;;;;;;;13.40;100.00;102227.72;5093099;28;20397;-68
2023/09/14 05:45:12;;;;;;;7.68;3.03;;;;;;;13.38;100.00;102216.47;5087818;28;20050;-67
2023/09/14 05:47:39;;;;;;;14.65;4.13;;;;;;;13.41;100.00;102224.16;5083415;28;20059;-68
2023/09/14 05:50:06;;;;;;;10.60;3.97;;;;;;;13.44;100.00;102227.31;5085926;27;20047;-68
2023/09/14 05:52:33;;;;;;;8.60;4.10;;;;;;;13.47;100.00;102228.88;5089679;28;20090;-68
2023/09/14 05:55:03;;;;;;;;;;;;;;;13.52;100.00;102224.03;5094487;28;20135;-68
2023/09/14 05:57:31;;;;;;;;;;;;;;;13.59;100.00;102229.63;5084522;28;19960;-68
2023/09/14 05:59:59;;;;;;;8.35;3.20;;;;;;;13.61;100.00;102228.53;5084847;28;19973;-69
2023/09/14 06:02:26;;;;;;;6.60;3.00;;;;;;;13.65;100.00;102232.56;5107269;27;20419;-68
2023/09/14 06:04:53;;;;;;;6.93;2.53;;;;;;;13.65;100.00;102229.09;5078161;28;20079;-71
2023/09/14 06:07:30;;;;;;;16.10;3.10;;;;;;;13.70;100.00;102223.41;5086313;28;20052;-70
2023/09/14 06:09:57;;;;;;;8.70;2.88;;;;;;;13.75;100.00;102229.97;5080715;28;20300;-70
2023/09/14 06:12:23;;;;;;;8.50;3.20;;;;;;;13.78;100.00;102240.28;5081118;28;20749;-69
2023/09/14 06:14:50;;;;;;;7.25;3.10;;;;;;;13.80;100.00;102233.06;5083314;28;20112;-70
2023/09/14 06:17:16;;;;;;;14.45;3.40;;;;;;;13.84;100.00;102237.09;5086405;28;20684;-70
2023/09/14 06:19:43;;;;;;;8.10;3.20;;;;;;;13.86;100.00;102234.34;5103612;28;20078;-69
2023/09/14 06:22:09;;;;;;;9.57;3.38;;;;;;;13.90;100.00;102238.38;5083437;28;20134;-70
2023/09/14 06:24:56;;;;;;;11.55;3.75;;;;;;;13.95;100.00;102232.69;5087669;28;20063;-70
2023/09/14 06:27:28;;;;;;;13.50;3.90;;;;;;;13.98;100.00;102233.25;5085127;28;20074;-70
2023/09/14 06:29:54;;;;;;;11.48;3.58;;;;;;;13.99;100.00;102237.53;5089732;28;20059;-70
2023/09/14 06:32:21;;;;;;;9.82;3.97;;;;;;;14.06;100.00;102237.84;5086445;28;20055;-71
2023/09/14 06:34:48;;;;;;;13.60;3.60;;;;;;;14.12;100.00;102242.59;5088985;28;20049;-70
2023/09/14 06:37:35;;;;;;;11.27;3.53;;;;;;;14.16;100.00;102237.88;5084159;28;20044;-70
2023/09/14 06:40:05;;;;;;;11.20;3.70;;;;;;;14.21;100.00;102240.94;5087011;28;20206;-70
2023/09/14 06:42:32;;;;;;;6.03;3.35;;;;;;;14.29;100.00;102249.03;5086017;28;20106;-70
2023/09/14 06:44:59;;;;;;;12.20;4.10;;;;;;;14.34;100.00;102246.81;5080764;28;20063;-69
2023/09/14 06:47:25;;;;;;;8.70;4.13;;;;;;;14.38;100.00;102242.91;5089286;28;20062;-69
2023/09/14 06:49:52;;;;;;;12.60;4.30;;;;;;;14.48;100.00;102250.84;5081975;28;20485;-69
2023/09/14 06:52:18;;;;;;;11.70;4.28;;;;;;;14.52;100.00;102244.31;5090037;28;20736;-69
2023/09/14 06:54:46;;;;;;;10.30;3.90;;;;;;;14.59;100.00;102244.66;5084043;28;20815;-68
2023/09/14 06:57:13;;;;;;;10.93;4.57;;;;;;;14.65;100.00;102253.84;5076339;28;20708;-69
2023/09/14 06:59:39;;;;;;;11.23;4.13;;;;;;;14.70;100.00;102249.81;5089807;28;20062;-69
2023/09/14 07:02:06;;;;;;;13.18;4.35;;;;;;;14.78;100.00;102257.03;5095235;27;20629;-69
2023/09/14 07:04:33;;;;;;;12.23;3.50;;;;;;;14.87;100.00;102252.72;5092790;27;20075;-69
2023/09/14 07:07:00;;;;;;;12.02;4.00;;;;;;;14.96;100.00;102254.53;5077617;28;20059;-69
2023/09/14 07:09:28;;;;;;;12.88;3.50;;;;;;;15.06;100.00;102251.88;5084891;28;20047;-69
2023/09/14 07:11:54;;;;;;;11.32;3.30;;;;;;;15.08;100.00;102253.41;5087458;28;20744;-69
2023/09/14 07:14:21;;;;;;;12.65;3.40;;;;;;;15.18;100.00;102245.44;5081299;28;20127;-69
2023/09/14 07:16:47;;;;;;;7.15;2.75;;;;;;;15.22;100.00;102252.94;5095627;28;20535;-69
2023/09/14 07:19:14;;;;;;;15.27;3.15;;;;;;;15.33;100.00;102256.44;5080112;28;20048;-70
2023/09/14 07:21:41;;;;;;;13.40;3.35;;;;;;;15.36;100.00;102251.66;5080892;28;20048;-69
2023/09/14 07:24:07;;;;;;;10.73;2.63;;;;;;;15.44;100.00;102250.94;5077580;28;20108;-69
2023/09/14 07:26:35;;;;;;;11.80;2.78;;;;;;;15.49;100.00;102259.28;5089209;28;20864;-69
2023/09/14 07:29:02;;;;;;;10.07;2.42;;;;;;;15.59;100.00;102253.97;5081860;28;20640;-69
2023/09/14 07:31:30;;;;;;;8.05;2.40;;;;;;;15.66;100.00;102252.44;5099188;28;20539;-69
2023/09/14 07:33:57;;;;;;;7.22;2.22;;;;;;;15.75;100.00;102253.38;5082916;28;20588;-69
2023/09/14 07:36:23;;;;;;;14.05;3.17;;;;;;;15.76;100.00;102257.72;5076314;28;20468;-69
2023/09/14 07:38:49;;;;;;;11.05;3.03;;;;;;;15.76;100.00;102263.84;5080697;28;20134;-69
2023/09/14 07:41:16;;;;;;;8.65;2.47;;;;;;;15.82;100.00;102259.78;5078253;28;20471;-69
2023/09/14 07:43:42;;;;;;;11.07;3.47;;;;;;;15.86;100.00;102271.72;5083708;28;20055;-69
2023/09/14 07:46:09;;;;;;;9.60;3.30;;;;;;;15.94;100.00;102273.66;5099730;28;20073;-68
2023/09/14 07:48:36;;;;;;;9.70;2.83;;;;;;;15.97;100.00;102265.41;5082227;28;20768;-69
2023/09/14 07:51:03;;;;;;;12.20;2.95;;;;;;;16.01;100.00;102278.22;5088556;28;20051;-70
2023/09/14 07:53:29;;;;;;;8.68;2.85;;;;;;;16.05;100.00;102270.78;5082089;28;20105;-70
2023/09/14 07:55:55;;;;;;;10.77;3.17;;;;;;;16.03;100.00;102272.75;5082158;28;20397;-70
2023/09/14 07:58:22;;;;;;;13.90;2.85;;;;;;;16.09;100.00;102273.97;5076396;28;20086;-69
2023/09/14 08:00:49;;;;;;;9.40;2.90;;;;;;;16.18;100.00;102273.94;5100529;28;20043;-69
2023/09/14 08:03:15;;;;;;;9.68;2.72;;;;;;;16.26;100.00;102278.47;5095138;28;20055;-69
2023/09/14 08:05:42;;;;;;;13.07;3.00;;;;;;;16.31;100.00;102272.75;5070171;28;20052;-69
2023/09/14 08:08:09;;;;;;;14.25;3.00;;;;;;;16.44;100.00;102285.63;5081118;28;20520;-69
2023/09/14 08:10:36;;;;;;;12.25;2.97;;;;;;;16.50;100.00;102280.56;5090892;28;20051;-69
2023/09/14 08:13:03;;;;;;;11.40;3.00;;;;;;;16.55;100.00;102283.59;5083826;28;20059;-70
2023/09/14 08:15:30;;;;;;;8.80;2.90;;;;;;;16.66;100.00;102273.75;5076209;28;20052;-69
2023/09/14 08:17:56;;;;;;;10.10;2.88;;;;;;;16.68;100.00;102277.09;5087363;28;20445;-69
2023/09/14 08:20:23;;;;;;;11.73;3.03;;;;;;;16.74;100.00;102279.13;5095126;28;20557;-69
2023/09/14 08:22:50;;;;;;;7.90;2.85;;;;;;;16.79;100.00;102276.88;5077623;28;20812;-69
2023/09/14 08:25:17;;;;;;;9.20;3.15;;;;;;;16.88;100.00;102286.59;5082721;28;20052;-69
2023/09/14 08:27:43;;;;;;;11.20;3.22;;;;;;;16.99;100.00;102291.66;5084069;28;20059;-69
2023/09/14 08:30:11;;;;;;;8.32;2.60;;;;;;;17.07;100.00;102287.41;5093459;28;20047;-69
2023/09/14 08:32:38;;;;;;;7.10;2.88;;;;;;;17.17;100.00;102275.72;5073694;28;20051;-69
2023/09/14 08:35:25;;;;;;;11.90;3.33;;;;;;;17.36;100.00;102280.00;5086388;28;20126;-68
2023/09/14 08:37:53;;;;;;;9.13;2.22;;;;;;;17.53;100.00;102277.47;5081151;28;20044;-68
2023/09/14 08:40:20;;;;;;;8.10;2.67;;;;;;;17.69;100.00;102274.06;5095373;28;20050;-69
2023/09/14 08:42:51;;;;;;;11.38;3.58;;;;;;;17.77;100.00;102277.56;5090823;28;20048;-69
2023/09/14 08:45:28;;;;;;;10.93;3.10;;;;;;;17.90;100.00;102274.53;5082631;28;20056;-68
2023/09/14 08:47:57;;;;;;;8.50;3.10;;;;;;;18.07;100.00;102279.88;5076041;28;20051;-69
2023/09/14 08:50:25;;;;;;;;;;;;;;;18.25;100.00;102285.09;5085833;28;20083;-69
2023/09/14 08:52:52;;;;;;;12.60;3.20;;;;;;;18.32;99.75;102273.66;5087821;28;19969;-69
2023/09/14 08:55:20;;;;;;;9.55;2.97;;;;;;;18.39;94.47;102273.84;5083329;28;20424;-69
2023/09/14 08:57:47;;;;;;;;;;;;;;;18.45;93.91;102267.06;5085421;28;20051;-70
2023/09/14 09:00:15;;;;;;;12.18;3.17;;;;;;;18.63;96.82;102267.75;5085530;28;19924;-69
2023/09/14 09:02:43;;;;;;;12.10;3.17;;;;;;;18.80;96.85;102268.63;5105869;27;20057;-69
2023/09/14 09:05:12;;;;;;;10.30;3.40;;;;;;;18.96;93.43;102273.94;5098716;28;20051;-69
2023/09/14 09:07:40;;;;;;;13.70;3.65;;;;;;;19.12;91.90;102270.44;5085838;28;20105;-69
2023/09/14 09:10:30;;;;;;;12.43;3.97;;;;;;;19.20;92.23;102264.28;5093440;28;20051;-69
2023/09/14 09:13:00;;;;;;;12.35;3.20;;;;;;;19.27;90.04;102262.63;5073521;28;20405;-69
2023/09/14 09:15:32;;;;;;;10.35;3.92;;;;;;;19.38;88.99;102260.59;5091770;28;20137;-69
2023/09/14 09:18:06;;;;;;;11.85;3.58;;;;;;;19.58;90.17;102263.69;5084170;28;20050;-69
2023/09/14 09:20:35;;;;;;;8.57;3.63;;;;;;;19.73;89.30;102264.69;5087127;28;20463;-69
2023/09/14 09:23:02;;;;;;;14.05;5.18;;;;;;;19.62;83.41;102260.53;5084730;28;20108;-69
2023/09/14 09:25:42;;;;;;;11.88;5.20;;;;;;;19.47;84.41;102257.75;5077434;28;20051;-69
2023/09/14 09:28:08;;;;;;;10.27;4.53;;;;;;;19.38;83.62;102260.59;5076899;28;20364;-69
2023/09/14 09:30:36;;;;;;;16.77;4.70;;;;;;;19.22;84.12;102262.28;5081482;28;20154;-69
2023/09/14 09:33:03;;;;;;;15.00;4.60;;;;;;;19.30;86.28;102259.59;5096962;28;20055;-69
2023/09/14 09:35:31;;;;;;;11.57;4.47;;;;;;;19.55;87.19;102256.88;5083794;28;20083;-70
2023/09/14 09:37:59;;;;;;;11.33;4.77;;;;;;;19.86;86.61;102254.31;5084492;28;20132;-69
2023/09/14 09:40:33;;;;;;;13.82;4.60;;;;;;;20.09;86.56;102251.72;5086221;28;20144;-69
2023/09/14 09:43:04;;;;;;;15.95;5.00;;;;;;;20.29;87.48;102248.59;5071196;28;20108;-69
2023/09/14 09:45:31;;;;;;;12.38;4.53;;;;;;;20.26;81.57;102247.09;5084046;28;20051;-69
2023/09/14 09:48:00;;;;;;;10.13;4.28;;;;;;;20.14;82.66;102254.66;5080819;28;20062;-69
2023/09/14 09:50:28;;;;;;;12.77;4.45;;;;;;;20.03;84.29;102255.09;5088124;28;20135;-70
2023/09/14 09:52:54;;;;;;;8.87;3.87;;;;;;;20.47;88.28;102243.00;5081821;28;20047;-69
2023/09/14 09:55:22;;;;;;;9.27;3.42;;;;;;;20.46;82.95;102244.81;5079658;28;20063;-69
2023/09/14 09:57:50;;;;;;;9.25;3.80;;;;;;;20.37;80.64;102251.22;5084817;28;20048;-69
2023/09/14 10:00:19;;;;;;;12.70;4.17;;;;;;;20.34;78.44;102240.91;5095892;28;20048;-69
2023/09/14 10:02:54;;;;;;;12.20;4.47;;;;;;;20.11;78.91;102243.53;5115870;27;20052;-69
2023/09/14 10:05:38;;;;;;;16.38;4.65;;;;;;;20.19;81.39;102247.97;5079578;28;20055;-69
2023/09/14 10:08:11;;;;;;;10.95;4.40;;;;;;;20.21;79.98;102244.16;5093013;28;20048;-69
2023/09/14 10:10:37;;;;;;;9.32;3.15;;;;;;;20.57;78.95;102245.41;5078698;28;20079;-70
2023/09/14 10:13:05;;;;;;;6.43;2.90;;;;;;;21.06;78.43;102245.84;5085752;28;20043;-69
2023/09/14 10:15:32;;;;;;;11.57;3.78;;;;;;;21.10;74.98;102241.00;5078290;28;20560;-69
2023/09/14 10:17:58;;;;;;;11.27;3.85;;;;;;;21.27;72.80;102239.81;5085299;28;20055;-69
2023/09/14 10:20:25;;;;;;;11.82;3.78;;;;;;;21.46;72.89;102235.81;5094576;28;20047;-69
2023/09/14 10:22:52;;;;;;;10.98;4.55;;;;;;;21.75;72.40;102239.44;5074153;28;20055;-69
2023/09/14 10:25:20;;;;;;;8.85;3.40;;;;;;;22.01;69.39;102235.44;5097087;28;20542;-70
2023/09/14 10:27:47;;;;;;;;;;;;;;;21.79;68.72;102245.25;5084951;28;20051;-69
2023/09/14 10:30:17;;;;;;;9.80;3.72;;;;;;;21.85;71.39;102241.84;5088863;28;20306;-69
2023/09/14 10:32:49;;;;;;;6.63;3.33;;;;;;;22.03;70.39;102228.91;5080078;28;20044;-68
2023/09/14 10:35:20;;;;;;;9.05;3.55;;;;;;;22.20;67.23;102228.66;5084246;28;20054;-69
2023/09/14 10:37:50;;;;;;;8.27;3.20;;;;;;;22.49;64.81;102223.22;5081650;28;20048;-69
2023/09/14 10:40:17;;;;;;;7.65;3.33;;;;;;;22.91;66.86;102231.38;5082245;28;20059;-70
2023/09/14 10:42:44;;;;;;;6.68;2.72;;;;;;;23.19;61.44;102223.41;5085997;28;20656;-69
2023/09/14 10:45:12;;;;;;;8.10;3.20;;;;;;;23.06;61.36;102220.63;5076852;28;20387;-69
2023/09/14 10:47:44;;;;;;;;;;;;;;;23.05;62.19;102214.47;5085885;28;20075;-69
2023/09/14 10:50:12;;;;;;;6.43;2.63;;;;;;;23.24;61.15;102214.78;5081314;28;20013;-69
2023/09/14 10:52:40;;;;;;;5.95;2.80;;;;;;;23.12;61.16;102219.84;5084953;28;20709;-69
2023/09/14 10:55:10;;;;;;;;;;;;;;;23.02;61.64;102214.84;5085483;28;20439;-69
2023/09/14 10:57:40;;;;;;;6.18;2.47;;;;;;;22.97;62.17;102219.91;5093141;28;19923;-69
2023/09/14 11:00:09;;;;;;;6.50;2.63;;;;;;;22.80;60.77;102210.53;5089552;28;20052;-69
2023/09/14 11:02:51;;;;;;;7.90;3.33;;;;;;;22.96;61.22;102207.56;5104473;27;20698;-69
2023/09/14 11:05:23;;;;;;;8.73;3.47;;;;;;;23.29;62.39;102207.00;5088799;28;20048;-69
2023/09/14 11:07:58;;;;;;;8.65;2.92;;;;;;;23.21;61.81;102202.63;5083160;28;20108;-68
2023/09/14 11:10:27;;;;;;;8.43;3.35;;;;;;;23.19;58.43;102201.13;5091795;28;20052;-69
2023/09/14 11:13:16;;;;;;;12.20;3.03;;;;;;;23.67;58.91;102201.19;5090894;28;20048;-69
2023/09/14 11:15:44;;;;;;;6.25;2.70;;;;;;;23.85;55.51;102193.44;5085170;28;20044;-69
2023/09/14 11:18:16;;;;;;;8.85;2.80;;;;;;;23.93;58.05;102195.09;5075397;28;20107;-69
2023/09/14 11:20:45;;;;;;;6.63;3.20;;;;;;;23.86;57.10;102196.97;5091506;28;20044;-69
2023/09/14 11:23:14;;;;;;;8.02;3.35;;;;;;;23.79;57.45;102196.09;5101795;28;20086;-69
2023/09/14 11:25:43;;;;;;;9.33;3.30;;;;;;;23.91;58.34;102194.47;5079890;28;20044;-69